sensor_id;sensor_type;location;lat;lon;timestamp;temperature;humidity
66088;DHT22;52872;52.994;6.940;2022-09-12T14:40:18;24.30;74.80
66088;DHT22;52872;52.994;6.940;2022-09-12T14:42:50;24.70;72.00
66088;DHT22;52872;52.994;6.940;2022-09-12T14:45:30;25.00;71.40
66088;DHT22;52872;52.994;6.940;2022-09-12T14:47:58;25.30;70.40
66088;DHT22;52872;52.994;6.940;2022-09-12T14:50:27;25.50;70.40
66088;DHT22;52872;52.994;6.940;2022-09-12T14:56:04;26.00;68.00
66088;DHT22;52872;52.994;6.940;2022-09-12T14:58:31;26.00;68.20
66088;DHT22;52872;52.994;6.940;2022-09-12T15:01:21;26.10;68.70
66088;DHT22;52872;52.994;6.940;2022-09-12T15:03:51;26.30;67.80
66088;DHT22;52872;52.994;6.940;2022-09-12T15:06:34;26.30;67.90
66088;DHT22;52872;52.994;6.940;2022-09-12T15:09:11;26.40;66.90
66088;DHT22;52872;52.994;6.940;2022-09-12T15:11:39;26.50;67.00
66088;DHT22;52872;52.994;6.940;2022-09-12T15:14:13;26.60;67.00
66088;DHT22;52872;52.994;6.940;2022-09-12T15:16:40;26.70;65.80
66088;DHT22;52872;52.994;6.940;2022-09-12T15:19:07;26.80;65.60
66088;DHT22;52872;52.994;6.940;2022-09-12T15:21:34;26.90;65.90
66088;DHT22;52872;52.994;6.940;2022-09-12T15:24:01;26.80;65.50
66088;DHT22;52872;52.994;6.940;2022-09-12T15:26:28;26.70;65.40
66088;DHT22;52872;52.994;6.940;2022-09-12T15:28:57;26.70;65.70
66088;DHT22;52872;52.994;6.940;2022-09-12T15:31:27;26.70;65.70
66088;DHT22;52872;52.994;6.940;2022-09-12T15:33:55;26.70;65.30
66088;DHT22;52872;52.994;6.940;2022-09-12T15:36:23;26.60;65.40
66088;DHT22;52872;52.994;6.940;2022-09-12T15:38:51;26.60;65.20
66088;DHT22;52872;52.994;6.940;2022-09-12T15:41:33;26.60;65.20
66088;DHT22;52872;52.994;6.940;2022-09-12T15:44:10;26.60;64.90
66088;DHT22;52872;52.994;6.940;2022-09-12T15:46:38;26.70;64.60
66088;DHT22;52872;52.994;6.940;2022-09-12T15:49:05;26.70;64.70
66088;DHT22;52872;52.994;6.940;2022-09-12T15:51:35;26.60;64.20
66088;DHT22;52872;52.994;6.940;2022-09-12T15:54:03;26.70;64.40
66088;DHT22;52872;52.994;6.940;2022-09-12T15:56:30;26.60;64.40
66088;DHT22;52872;52.994;6.940;2022-09-12T15:58:57;26.60;64.60
66088;DHT22;52872;52.994;6.940;2022-09-12T16:01:26;26.60;64.60
66088;DHT22;52872;52.994;6.940;2022-09-12T16:03:53;26.60;64.80
66088;DHT22;52872;52.994;6.940;2022-09-12T16:06:20;26.60;64.70
66088;DHT22;52872;52.994;6.940;2022-09-12T16:08:48;26.60;64.50
66088;DHT22;52872;52.994;6.940;2022-09-12T16:11:21;26.50;64.20
66088;DHT22;52872;52.994;6.940;2022-09-12T16:13:48;26.40;63.90
66088;DHT22;52872;52.994;6.940;2022-09-12T16:16:17;26.20;63.90
66088;DHT22;52872;52.994;6.940;2022-09-12T16:18:44;26.10;64.90
66088;DHT22;52872;52.994;6.940;2022-09-12T16:21:11;26.10;64.90
66088;DHT22;52872;52.994;6.940;2022-09-12T16:23:45;26.10;65.00
66088;DHT22;52872;52.994;6.940;2022-09-12T16:26:12;26.10;65.10
66088;DHT22;52872;52.994;6.940;2022-09-12T16:28:39;26.00;65.10
66088;DHT22;52872;52.994;6.940;2022-09-12T16:31:09;26.00;65.40
66088;DHT22;52872;52.994;6.940;2022-09-12T16:33:37;25.90;65.70
66088;DHT22;52872;52.994;6.940;2022-09-12T16:36:13;25.80;65.80
66088;DHT22;52872;52.994;6.940;2022-09-12T16:38:51;25.80;65.70
66088;DHT22;52872;52.994;6.940;2022-09-12T16:41:20;25.60;65.80
66088;DHT22;52872;52.994;6.940;2022-09-12T16:43:47;25.50;66.20
66088;DHT22;52872;52.994;6.940;2022-09-12T16:46:23;25.40;66.30
66088;DHT22;52872;52.994;6.940;2022-09-12T16:48:55;25.50;66.40
66088;DHT22;52872;52.994;6.940;2022-09-12T16:51:25;25.40;66.70
66088;DHT22;52872;52.994;6.940;2022-09-12T16:53:53;25.30;67.00
66088;DHT22;52872;52.994;6.940;2022-09-12T16:56:21;25.20;67.00
66088;DHT22;52872;52.994;6.940;2022-09-12T16:58:48;25.10;66.90
66088;DHT22;52872;52.994;6.940;2022-09-12T17:01:21;25.00;67.20
66088;DHT22;52872;52.994;6.940;2022-09-12T17:03:56;25.00;67.20
66088;DHT22;52872;52.994;6.940;2022-09-12T17:06:24;24.90;68.10
66088;DHT22;52872;52.994;6.940;2022-09-12T17:08:53;24.80;67.70
66088;DHT22;52872;52.994;6.940;2022-09-12T17:11:25;24.80;67.80
66088;DHT22;52872;52.994;6.940;2022-09-12T17:13:54;24.80;67.90
66088;DHT22;52872;52.994;6.940;2022-09-12T17:16:40;24.70;67.80
66088;DHT22;52872;52.994;6.940;2022-09-12T17:19:11;24.70;68.10
66088;DHT22;52872;52.994;6.940;2022-09-12T17:21:39;24.60;68.20
66088;DHT22;52872;52.994;6.940;2022-09-12T17:24:06;24.50;68.40
66088;DHT22;52872;52.994;6.940;2022-09-12T17:26:33;24.40;68.60
66088;DHT22;52872;52.994;6.940;2022-09-12T17:29:00;24.40;68.80
66088;DHT22;52872;52.994;6.940;2022-09-12T17:31:27;24.40;69.00
66088;DHT22;52872;52.994;6.940;2022-09-12T17:33:58;24.30;69.30
66088;DHT22;52872;52.994;6.940;2022-09-12T17:36:26;24.20;69.50
66088;DHT22;52872;52.994;6.940;2022-09-12T17:38:54;24.10;69.80
66088;DHT22;52872;52.994;6.940;2022-09-12T17:41:26;24.00;70.00
66088;DHT22;52872;52.994;6.940;2022-09-12T17:43:55;23.90;70.20
66088;DHT22;52872;52.994;6.940;2022-09-12T17:46:25;23.90;70.50
66088;DHT22;52872;52.994;6.940;2022-09-12T17:48:54;23.80;70.80
66088;DHT22;52872;52.994;6.940;2022-09-12T17:51:23;23.70;71.00
66088;DHT22;52872;52.994;6.940;2022-09-12T17:54:03;23.60;71.20
66088;DHT22;52872;52.994;6.940;2022-09-12T17:56:31;23.60;71.60
66088;DHT22;52872;52.994;6.940;2022-09-12T17:58:59;23.40;71.90
66088;DHT22;52872;52.994;6.940;2022-09-12T18:01:27;23.40;72.10
66088;DHT22;52872;52.994;6.940;2022-09-12T18:04:13;23.30;72.80
66088;DHT22;52872;52.994;6.940;2022-09-12T18:06:40;23.20;72.30
66088;DHT22;52872;52.994;6.940;2022-09-12T18:09:15;23.20;72.50
66088;DHT22;52872;52.994;6.940;2022-09-12T18:11:44;23.10;72.50
66088;DHT22;52872;52.994;6.940;2022-09-12T18:14:11;23.10;72.90
66088;DHT22;52872;52.994;6.940;2022-09-12T18:16:40;23.10;73.20
66088;DHT22;52872;52.994;6.940;2022-09-12T18:19:07;23.10;73.40
66088;DHT22;52872;52.994;6.940;2022-09-12T18:21:34;23.10;73.60
66088;DHT22;52872;52.994;6.940;2022-09-12T18:24:01;23.00;73.70
66088;DHT22;52872;52.994;6.940;2022-09-12T18:26:30;23.00;74.00
66088;DHT22;52872;52.994;6.940;2022-09-12T18:28:57;22.90;74.20
66088;DHT22;52872;52.994;6.940;2022-09-12T18:31:27;22.80;74.40
66088;DHT22;52872;52.994;6.940;2022-09-12T18:33:56;22.80;74.60
66088;DHT22;52872;52.994;6.940;2022-09-12T18:36:23;22.70;74.70
66088;DHT22;52872;52.994;6.940;2022-09-12T18:38:50;22.60;74.90
66088;DHT22;52872;52.994;6.940;2022-09-12T18:41:19;22.50;75.10
66088;DHT22;52872;52.994;6.940;2022-09-12T18:43:47;22.50;75.40
66088;DHT22;52872;52.994;6.940;2022-09-12T18:46:17;22.40;75.40
66088;DHT22;52872;52.994;6.940;2022-09-12T18:48:45;22.40;75.60
66088;DHT22;52872;52.994;6.940;2022-09-12T18:51:15;22.30;75.60
66088;DHT22;52872;52.994;6.940;2022-09-12T18:53:54;22.30;75.50
66088;DHT22;52872;52.994;6.940;2022-09-12T18:56:40;22.20;75.70
66088;DHT22;52872;52.994;6.940;2022-09-12T18:59:31;22.10;76.10
66088;DHT22;52872;52.994;6.940;2022-09-12T19:01:58;22.00;76.40
66088;DHT22;52872;52.994;6.940;2022-09-12T19:04:25;22.00;77.20
66088;DHT22;52872;52.994;6.940;2022-09-12T19:06:52;22.00;76.70
66088;DHT22;52872;52.994;6.940;2022-09-12T19:09:19;22.00;76.90
66088;DHT22;52872;52.994;6.940;2022-09-12T19:11:47;21.90;76.90
66088;DHT22;52872;52.994;6.940;2022-09-12T19:14:16;21.90;77.00
66088;DHT22;52872;52.994;6.940;2022-09-12T19:16:44;21.90;77.10
66088;DHT22;52872;52.994;6.940;2022-09-12T19:19:11;21.90;77.20
66088;DHT22;52872;52.994;6.940;2022-09-12T19:21:38;21.90;77.20
66088;DHT22;52872;52.994;6.940;2022-09-12T19:24:06;21.80;77.10
66088;DHT22;52872;52.994;6.940;2022-09-12T19:26:36;21.80;77.20
66088;DHT22;52872;52.994;6.940;2022-09-12T19:29:04;21.80;77.30
66088;DHT22;52872;52.994;6.940;2022-09-12T19:31:31;21.80;77.40
66088;DHT22;52872;52.994;6.940;2022-09-12T19:34:00;21.80;77.50
66088;DHT22;52872;52.994;6.940;2022-09-12T19:36:27;21.80;77.70
66088;DHT22;52872;52.994;6.940;2022-09-12T19:39:12;21.70;77.70
66088;DHT22;52872;52.994;6.940;2022-09-12T19:41:39;21.70;77.90
66088;DHT22;52872;52.994;6.940;2022-09-12T19:44:06;21.70;77.90
66088;DHT22;52872;52.994;6.940;2022-09-12T19:46:33;21.70;78.00
66088;DHT22;52872;52.994;6.940;2022-09-12T19:49:00;21.70;78.00
66088;DHT22;52872;52.994;6.940;2022-09-12T19:51:26;21.70;78.10
66088;DHT22;52872;52.994;6.940;2022-09-12T19:53:54;21.70;78.20
66088;DHT22;52872;52.994;6.940;2022-09-12T19:56:21;21.70;78.30
66088;DHT22;52872;52.994;6.940;2022-09-12T19:58:48;21.70;78.30
66088;DHT22;52872;52.994;6.940;2022-09-12T20:01:22;21.70;78.20
66088;DHT22;52872;52.994;6.940;2022-09-12T20:03:57;21.60;78.40
66088;DHT22;52872;52.994;6.940;2022-09-12T20:06:24;21.50;78.70
66088;DHT22;52872;52.994;6.940;2022-09-12T20:08:52;21.50;78.50
66088;DHT22;52872;52.994;6.940;2022-09-12T20:11:20;21.60;78.50
66088;DHT22;52872;52.994;6.940;2022-09-12T20:13:49;21.60;78.40
66088;DHT22;52872;52.994;6.940;2022-09-12T20:16:19;21.60;78.30
66088;DHT22;52872;52.994;6.940;2022-09-12T20:18:53;21.60;78.20
66088;DHT22;52872;52.994;6.940;2022-09-12T20:21:22;21.70;78.30
66088;DHT22;52872;52.994;6.940;2022-09-12T20:24:08;21.70;78.40
66088;DHT22;52872;52.994;6.940;2022-09-12T20:26:35;21.70;78.30
66088;DHT22;52872;52.994;6.940;2022-09-12T20:29:04;21.70;78.30
66088;DHT22;52872;52.994;6.940;2022-09-12T20:31:31;21.70;78.20
66088;DHT22;52872;52.994;6.940;2022-09-12T20:33:59;21.70;78.20
66088;DHT22;52872;52.994;6.940;2022-09-12T20:36:26;21.70;78.20
66088;DHT22;52872;52.994;6.940;2022-09-12T20:38:58;21.80;78.30
66088;DHT22;52872;52.994;6.940;2022-09-12T20:41:28;21.80;78.30
66088;DHT22;52872;52.994;6.940;2022-09-12T20:43:56;21.70;78.40
66088;DHT22;52872;52.994;6.940;2022-09-12T20:46:25;21.70;78.50
66088;DHT22;52872;52.994;6.940;2022-09-12T20:48:52;21.70;78.50
66088;DHT22;52872;52.994;6.940;2022-09-12T20:51:20;21.70;78.60
66088;DHT22;52872;52.994;6.940;2022-09-12T20:53:50;21.70;78.70
66088;DHT22;52872;52.994;6.940;2022-09-12T20:56:17;21.70;78.70
66088;DHT22;52872;52.994;6.940;2022-09-12T20:58:44;21.70;79.00
66088;DHT22;52872;52.994;6.940;2022-09-12T21:01:12;21.60;79.30
66088;DHT22;52872;52.994;6.940;2022-09-12T21:03:40;21.60;79.50
66088;DHT22;52872;52.994;6.940;2022-09-12T21:06:09;21.60;79.80
66088;DHT22;52872;52.994;6.940;2022-09-12T21:08:36;21.60;79.90
66088;DHT22;52872;52.994;6.940;2022-09-12T21:11:04;21.60;80.00
66088;DHT22;52872;52.994;6.940;2022-09-12T21:13:31;21.60;80.00
66088;DHT22;52872;52.994;6.940;2022-09-12T21:18:30;21.60;80.00
66088;DHT22;52872;52.994;6.940;2022-09-12T21:20:58;21.50;80.00
66088;DHT22;52872;52.994;6.940;2022-09-12T21:23:25;21.50;80.00
66088;DHT22;52872;52.994;6.940;2022-09-12T21:25:53;21.50;80.10
66088;DHT22;52872;52.994;6.940;2022-09-12T21:28:20;21.50;80.20
66088;DHT22;52872;52.994;6.940;2022-09-12T21:30:48;21.50;80.30
66088;DHT22;52872;52.994;6.940;2022-09-12T21:33:16;21.50;80.20
66088;DHT22;52872;52.994;6.940;2022-09-12T21:35:44;21.50;80.20
66088;DHT22;52872;52.994;6.940;2022-09-12T21:38:11;21.50;80.30
66088;DHT22;52872;52.994;6.940;2022-09-12T21:40:38;21.50;80.40
66088;DHT22;52872;52.994;6.940;2022-09-12T21:43:05;21.50;80.60
66088;DHT22;52872;52.994;6.940;2022-09-12T21:45:37;21.40;80.60
66088;DHT22;52872;52.994;6.940;2022-09-12T21:48:04;21.50;80.70
66088;DHT22;52872;52.994;6.940;2022-09-12T21:50:31;21.50;80.70
66088;DHT22;52872;52.994;6.940;2022-09-12T21:52:58;21.40;80.70
66088;DHT22;52872;52.994;6.940;2022-09-12T21:55:25;21.40;80.70
66088;DHT22;52872;52.994;6.940;2022-09-12T21:57:53;21.40;81.40
66088;DHT22;52872;52.994;6.940;2022-09-12T22:00:21;21.40;80.90
66088;DHT22;52872;52.994;6.940;2022-09-12T22:02:48;21.40;80.90
66088;DHT22;52872;52.994;6.940;2022-09-12T22:05:15;21.40;81.00
66088;DHT22;52872;52.994;6.940;2022-09-12T22:07:43;21.40;81.20
66088;DHT22;52872;52.994;6.940;2022-09-12T22:10:10;21.30;81.40
66088;DHT22;52872;52.994;6.940;2022-09-12T22:12:37;21.20;81.40
66088;DHT22;52872;52.994;6.940;2022-09-12T22:15:06;21.20;81.40
66088;DHT22;52872;52.994;6.940;2022-09-12T22:17:53;21.20;81.30
66088;DHT22;52872;52.994;6.940;2022-09-12T22:20:20;21.20;81.40
66088;DHT22;52872;52.994;6.940;2022-09-12T22:22:47;21.20;81.30
66088;DHT22;52872;52.994;6.940;2022-09-12T22:25:32;21.20;81.30
66088;DHT22;52872;52.994;6.940;2022-09-12T22:27:59;21.20;81.40
66088;DHT22;52872;52.994;6.940;2022-09-12T22:30:26;21.20;81.50
66088;DHT22;52872;52.994;6.940;2022-09-12T22:32:54;21.20;81.50
66088;DHT22;52872;52.994;6.940;2022-09-12T22:35:21;21.20;81.40
66088;DHT22;52872;52.994;6.940;2022-09-12T22:37:48;21.20;81.70
66088;DHT22;52872;52.994;6.940;2022-09-12T22:40:15;21.20;81.90
66088;DHT22;52872;52.994;6.940;2022-09-12T22:42:42;21.20;82.20
66088;DHT22;52872;52.994;6.940;2022-09-12T22:45:09;21.20;82.40
66088;DHT22;52872;52.994;6.940;2022-09-12T22:47:36;21.20;82.50
66088;DHT22;52872;52.994;6.940;2022-09-12T22:50:03;21.20;82.60
66088;DHT22;52872;52.994;6.940;2022-09-12T22:52:30;21.20;82.60
66088;DHT22;52872;52.994;6.940;2022-09-12T22:54:57;21.20;82.50
66088;DHT22;52872;52.994;6.940;2022-09-12T22:57:24;21.20;82.60
66088;DHT22;52872;52.994;6.940;2022-09-12T22:59:51;21.20;82.70
66088;DHT22;52872;52.994;6.940;2022-09-12T23:02:18;21.20;82.70
66088;DHT22;52872;52.994;6.940;2022-09-12T23:04:45;21.20;82.80
66088;DHT22;52872;52.994;6.940;2022-09-12T23:07:12;21.20;83.00
66088;DHT22;52872;52.994;6.940;2022-09-12T23:09:40;21.20;83.20
66088;DHT22;52872;52.994;6.940;2022-09-12T23:12:07;21.10;83.40
66088;DHT22;52872;52.994;6.940;2022-09-12T23:14:34;21.20;83.70
66088;DHT22;52872;52.994;6.940;2022-09-12T23:17:01;21.20;84.00
66088;DHT22;52872;52.994;6.940;2022-09-12T23:19:28;21.20;84.20
66088;DHT22;52872;52.994;6.940;2022-09-12T23:21:54;21.10;84.40
66088;DHT22;52872;52.994;6.940;2022-09-12T23:24:21;21.10;84.80
66088;DHT22;52872;52.994;6.940;2022-09-12T23:26:48;21.10;85.20
66088;DHT22;52872;52.994;6.940;2022-09-12T23:29:15;21.00;85.90
66088;DHT22;52872;52.994;6.940;2022-09-12T23:31:42;21.00;86.80
66088;DHT22;52872;52.994;6.940;2022-09-12T23:34:09;20.90;87.50
66088;DHT22;52872;52.994;6.940;2022-09-12T23:36:36;20.90;88.20
66088;DHT22;52872;52.994;6.940;2022-09-12T23:39:03;20.90;88.80
66088;DHT22;52872;52.994;6.940;2022-09-12T23:41:30;20.80;89.30
66088;DHT22;52872;52.994;6.940;2022-09-12T23:43:57;20.70;89.50
66088;DHT22;52872;52.994;6.940;2022-09-12T23:46:24;20.70;89.70
66088;DHT22;52872;52.994;6.940;2022-09-12T23:48:51;20.70;90.10
66088;DHT22;52872;52.994;6.940;2022-09-12T23:51:21;20.60;90.20
66088;DHT22;52872;52.994;6.940;2022-09-12T23:53:48;20.60;90.50
66088;DHT22;52872;52.994;6.940;2022-09-12T23:56:15;20.50;90.70
66088;DHT22;52872;52.994;6.940;2022-09-12T23:58:42;20.50;90.80
